sensor_id;sensor_type;location;lat;lon;timestamp;pressure;altitude;pressure_sealevel;temperature;humidity
80509;BME280;69838;52.602;13.434;2023-11-19T00:00:33;101075.22;;;2.41;100.00
80509;BME280;69838;52.602;13.434;2023-11-19T00:01:19;101077.91;;;2.40;100.00
80509;BME280;69838;52.602;13.434;2023-11-19T00:02:04;101062.78;;;2.40;100.00
80509;BME280;69838;52.602;13.434;2023-11-19T00:02:50;101062.81;;;2.39;100.00
80509;BME280;69838;52.602;13.434;2023-11-19T00:03:37;101068.09;;;2.40;100.00
80509;BME280;69838;52.602;13.434;2023-11-19T00:04:23;101059.25;;;2.38;100.00
80509;BME280;69838;52.602;13.434;2023-11-19T00:05:08;101054.84;;;2.37;100.00
80509;BME280;69838;52.602;13.434;2023-11-19T00:05:56;101057.50;;;2.37;100.00
80509;BME280;69838;52.602;13.434;2023-11-19T00:06:41;101051.25;;;2.38;100.00
80509;BME280;69838;52.602;13.434;2023-11-19T00:07:27;101041.53;;;2.37;100.00
80509;BME280;69838;52.602;13.434;2023-11-19T00:08:13;101041.53;;;2.37;100.00
80509;BME280;69838;52.602;13.434;2023-11-19T00:08:58;101041.47;;;2.40;100.00
80509;BME280;69838;52.602;13.434;2023-11-19T00:09:45;101037.06;;;2.38;100.00
80509;BME280;69838;52.602;13.434;2023-11-19T00:10:31;101038.00;;;2.35;100.00
80509;BME280;69838;52.602;13.434;2023-11-19T00:11:16;101034.41;;;2.36;100.00
80509;BME280;69838;52.602;13.434;2023-11-19T00:12:04;101027.34;;;2.35;100.00
80509;BME280;69838;52.602;13.434;2023-11-19T00:12:49;101029.06;;;2.36;100.00
80509;BME280;69838;52.602;13.434;2023-11-19T00:13:35;101030.00;;;2.35;100.00
80509;BME280;69838;52.602;13.434;2023-11-19T00:14:21;101030.88;;;2.34;100.00
80509;BME280;69838;52.602;13.434;2023-11-19T00:15:07;101021.09;;;2.35;100.00
80509;BME280;69838;52.602;13.434;2023-11-19T00:15:56;101024.69;;;2.32;100.00
80509;BME280;69838;52.602;13.434;2023-11-19T00:16:42;101021.09;;;2.35;100.00
80509;BME280;69838;52.602;13.434;2023-11-19T00:17:28;101026.44;;;2.33;100.00
80509;BME280;69838;52.602;13.434;2023-11-19T00:18:13;101017.56;;;2.33;100.00
80509;BME280;69838;52.602;13.434;2023-11-19T00:19:01;101022.03;;;2.32;100.00
80509;BME280;69838;52.602;13.434;2023-11-19T00:19:46;101021.09;;;2.33;100.00
80509;BME280;69838;52.602;13.434;2023-11-19T00:20:31;101012.22;;;2.34;100.00
80509;BME280;69838;52.602;13.434;2023-11-19T00:21:18;101019.28;;;2.37;100.00
80509;BME280;69838;52.602;13.434;2023-11-19T00:22:03;101012.22;;;2.36;100.00
80509;BME280;69838;52.602;13.434;2023-11-19T00:22:49;101013.09;;;2.36;100.00
80509;BME280;69838;52.602;13.434;2023-11-19T00:23:37;101010.44;;;2.35;100.00
80509;BME280;69838;52.602;13.434;2023-11-19T00:24:22;101005.09;;;2.35;100.00
80509;BME280;69838;52.602;13.434;2023-11-19T00:25:08;101006.91;;;2.34;100.00
80509;BME280;69838;52.602;13.434;2023-11-19T00:25:54;100998.91;;;2.34;100.00
80509;BME280;69838;52.602;13.434;2023-11-19T00:26:39;101005.09;;;2.35;100.00
80509;BME280;69838;52.602;13.434;2023-11-19T00:27:25;100992.72;;;2.32;100.00
80509;BME280;69838;52.602;13.434;2023-11-19T00:28:11;100994.44;;;2.35;100.00
80509;BME280;69838;52.602;13.434;2023-11-19T00:28:56;100997.97;;;2.37;100.00
80509;BME280;69838;52.602;13.434;2023-11-19T00:29:42;100996.22;;;2.37;100.00
80509;BME280;69838;52.602;13.434;2023-11-19T00:30:30;100996.22;;;2.37;100.00
80509;BME280;69838;52.602;13.434;2023-11-19T00:31:16;100990.91;;;2.36;100.00
80509;BME280;69838;52.602;13.434;2023-11-19T00:32:02;100994.44;;;2.35;100.00
80509;BME280;69838;52.602;13.434;2023-11-19T00:32:48;100999.78;;;2.35;100.00
80509;BME280;69838;52.602;13.434;2023-11-19T00:33:34;100991.78;;;2.36;100.00
80509;BME280;69838;52.602;13.434;2023-11-19T00:34:20;100993.56;;;2.37;100.00
80509;BME280;69838;52.602;13.434;2023-11-19T00:35:08;100990.88;;;2.37;100.00
80509;BME280;69838;52.602;13.434;2023-11-19T00:35:55;100987.31;;;2.37;100.00
80509;BME280;69838;52.602;13.434;2023-11-19T00:36:41;100985.56;;;2.36;100.00
80509;BME280;69838;52.602;13.434;2023-11-19T00:37:27;100978.44;;;2.39;100.00
80509;BME280;69838;52.602;13.434;2023-11-19T00:38:12;100987.28;;;2.40;100.00
80509;BME280;69838;52.602;13.434;2023-11-19T00:38:58;100987.28;;;2.40;100.00
80509;BME280;69838;52.602;13.434;2023-11-19T00:39:44;100981.97;;;2.40;100.00
80509;BME280;69838;52.602;13.434;2023-11-19T00:40:31;100986.44;;;2.39;100.00
80509;BME280;69838;52.602;13.434;2023-11-19T00:41:17;100984.63;;;2.41;100.00
80509;BME280;69838;52.602;13.434;2023-11-19T00:42:03;100981.94;;;2.41;100.00
80509;BME280;69838;52.602;13.434;2023-11-19T00:42:48;100981.06;;;2.42;100.00
80509;BME280;69838;52.602;13.434;2023-11-19T00:43:35;100971.28;;;2.43;100.00
80509;BME280;69838;52.602;13.434;2023-11-19T00:44:20;100971.28;;;2.43;100.00
80509;BME280;69838;52.602;13.434;2023-11-19T00:45:07;100965.94;;;2.46;100.00
80509;BME280;69838;52.602;13.434;2023-11-19T00:45:55;100965.94;;;2.43;100.00
80509;BME280;69838;52.602;13.434;2023-11-19T00:46:40;100956.19;;;2.40;100.00
80509;BME280;69838;52.602;13.434;2023-11-19T00:47:25;100957.09;;;2.41;100.00
80509;BME280;69838;52.602;13.434;2023-11-19T00:48:12;100958.91;;;2.39;100.00
80509;BME280;69838;52.602;13.434;2023-11-19T00:48:58;100949.13;;;2.39;100.00
80509;BME280;69838;52.602;13.434;2023-11-19T00:49:46;100960.66;;;2.40;100.00
80509;BME280;69838;52.602;13.434;2023-11-19T00:50:33;100946.44;;;2.41;100.00
80509;BME280;69838;52.602;13.434;2023-11-19T00:51:19;100949.09;;;2.41;100.00
80509;BME280;69838;52.602;13.434;2023-11-19T00:52:04;100947.31;;;2.41;100.00
80509;BME280;69838;52.602;13.434;2023-11-19T00:52:51;100941.97;;;2.41;100.00
80509;BME280;69838;52.602;13.434;2023-11-19T00:53:36;100942.88;;;2.40;100.00
80509;BME280;69838;52.602;13.434;2023-11-19T00:54:22;100940.19;;;2.43;100.00
80509;BME280;69838;52.602;13.434;2023-11-19T00:55:10;100933.97;;;2.43;100.00
80509;BME280;69838;52.602;13.434;2023-11-19T00:55:56;100936.66;;;2.41;100.00
80509;BME280;69838;52.602;13.434;2023-11-19T00:56:42;100933.97;;;2.44;100.00
80509;BME280;69838;52.602;13.434;2023-11-19T00:57:30;100940.16;;;2.46;100.00
80509;BME280;69838;52.602;13.434;2023-11-19T00:58:15;100940.16;;;2.46;100.00
80509;BME280;69838;52.602;13.434;2023-11-19T00:59:03;100933.94;;;2.46;100.00
80509;BME280;69838;52.602;13.434;2023-11-19T00:59:49;100926.84;;;2.45;100.00
80509;BME280;69838;52.602;13.434;2023-11-19T01:00:34;100924.19;;;2.43;100.00
80509;BME280;69838;52.602;13.434;2023-11-19T01:01:20;100928.63;;;2.46;100.00
80509;BME280;69838;52.602;13.434;2023-11-19T01:02:06;100923.25;;;2.47;100.00
80509;BME280;69838;52.602;13.434;2023-11-19T01:02:51;100918.84;;;2.46;100.00
80509;BME280;69838;52.602;13.434;2023-11-19T01:03:37;100918.84;;;2.46;100.00
80509;BME280;69838;52.602;13.434;2023-11-19T01:04:23;100913.50;;;2.45;100.00
80509;BME280;69838;52.602;13.434;2023-11-19T01:05:10;100911.72;;;2.45;100.00
80509;BME280;69838;52.602;13.434;2023-11-19T01:05:59;100908.19;;;2.43;100.00
80509;BME280;69838;52.602;13.434;2023-11-19T01:06:46;100906.41;;;2.45;100.00
80509;BME280;69838;52.602;13.434;2023-11-19T01:07:31;100901.97;;;2.46;100.00
80509;BME280;69838;52.602;13.434;2023-11-19T01:08:18;100895.69;;;2.48;100.00
80509;BME280;69838;52.602;13.434;2023-11-19T01:09:04;100896.56;;;2.49;100.00
80509;BME280;69838;52.602;13.434;2023-11-19T01:09:49;100893.00;;;2.52;100.00
80509;BME280;69838;52.602;13.434;2023-11-19T01:10:37;100899.19;;;2.54;100.00
80509;BME280;69838;52.602;13.434;2023-11-19T01:11:22;100905.47;;;2.50;100.00
80509;BME280;69838;52.602;13.434;2023-11-19T01:12:08;100893.03;;;2.48;100.00
80509;BME280;69838;52.602;13.434;2023-11-19T01:12:55;100892.16;;;2.50;100.00
80509;BME280;69838;52.602;13.434;2023-11-19T01:13:40;100881.50;;;2.50;100.00
80509;BME280;69838;52.602;13.434;2023-11-19T01:14:26;100870.88;;;2.46;100.00
80509;BME280;69838;52.602;13.434;2023-11-19T01:15:12;100873.53;;;2.46;100.00
80509;BME280;69838;52.602;13.434;2023-11-19T01:15:58;100863.72;;;2.48;100.00
80509;BME280;69838;52.602;13.434;2023-11-19T01:16:43;100857.50;;;2.50;100.00
80509;BME280;69838;52.602;13.434;2023-11-19T01:17:29;100854.84;;;2.50;100.00
80509;BME280;69838;52.602;13.434;2023-11-19T01:18:16;100848.59;;;2.51;100.00
80509;BME280;69838;52.602;13.434;2023-11-19T01:19:02;100843.28;;;2.47;100.00
80509;BME280;69838;52.602;13.434;2023-11-19T01:19:49;100847.72;;;2.48;100.00
80509;BME280;69838;52.602;13.434;2023-11-19T01:20:36;100841.53;;;2.48;100.00
80509;BME280;69838;52.602;13.434;2023-11-19T01:21:22;100847.72;;;2.48;100.00
80509;BME280;69838;52.602;13.434;2023-11-19T01:22:08;100836.22;;;2.46;100.00
80509;BME280;69838;52.602;13.434;2023-11-19T01:22:53;100832.63;;;2.47;100.00
80509;BME280;69838;52.602;13.434;2023-11-19T01:23:39;100842.41;;;2.48;100.00
80509;BME280;69838;52.602;13.434;2023-11-19T01:24:25;100837.97;;;2.47;100.00
80509;BME280;69838;52.602;13.434;2023-11-19T01:25:13;100829.94;;;2.51;100.00
80509;BME280;69838;52.602;13.434;2023-11-19T01:25:59;100826.38;;;2.52;100.00
80509;BME280;69838;52.602;13.434;2023-11-19T01:26:45;100832.59;;;2.52;100.00
80509;BME280;69838;52.602;13.434;2023-11-19T01:27:31;100824.56;;;2.54;100.00
80509;BME280;69838;52.602;13.434;2023-11-19T01:28:19;100824.56;;;2.54;100.00
80509;BME280;69838;52.602;13.434;2023-11-19T01:29:04;100821.91;;;2.54;100.00
80509;BME280;69838;52.602;13.434;2023-11-19T01:29:50;100829.03;;;2.53;100.00
80509;BME280;69838;52.602;13.434;2023-11-19T01:30:36;100827.25;;;2.54;100.00
80509;BME280;69838;52.602;13.434;2023-11-19T01:31:21;100833.47;;;2.53;100.00
80509;BME280;69838;52.602;13.434;2023-11-19T01:32:07;100831.59;;;2.58;100.00
80509;BME280;69838;52.602;13.434;2023-11-19T01:32:53;100833.38;;;2.59;100.00
80509;BME280;69838;52.602;13.434;2023-11-19T01:33:38;100828.06;;;2.59;100.00
80509;BME280;69838;52.602;13.434;2023-11-19T01:34:24;100831.53;;;2.64;100.00
80509;BME280;69838;52.602;13.434;2023-11-19T01:35:10;100823.56;;;2.61;100.00
80509;BME280;69838;52.602;13.434;2023-11-19T01:35:57;100829.75;;;2.63;100.00
80509;BME280;69838;52.602;13.434;2023-11-19T01:36:43;100829.75;;;2.63;100.00
80509;BME280;69838;52.602;13.434;2023-11-19T01:37:31;100829.75;;;2.63;100.00
80509;BME280;69838;52.602;13.434;2023-11-19T01:38:17;100826.22;;;2.64;100.00
80509;BME280;69838;52.602;13.434;2023-11-19T01:39:02;100818.22;;;2.62;100.00
80509;BME280;69838;52.602;13.434;2023-11-19T01:39:49;100814.72;;;2.60;100.00
80509;BME280;69838;52.602;13.434;2023-11-19T01:40:35;100819.09;;;2.63;100.00
80509;BME280;69838;52.602;13.434;2023-11-19T01:41:21;100812.00;;;2.62;100.00
80509;BME280;69838;52.602;13.434;2023-11-19T01:42:06;100812.91;;;2.62;100.00
80509;BME280;69838;52.602;13.434;2023-11-19T01:42:52;100805.78;;;2.61;100.00
80509;BME280;69838;52.602;13.434;2023-11-19T01:43:39;100809.31;;;2.63;100.00
80509;BME280;69838;52.602;13.434;2023-11-19T01:44:26;100805.78;;;2.63;100.00
80509;BME280;69838;52.602;13.434;2023-11-19T01:45:22;100796.84;;;2.65;100.00
80509;BME280;69838;52.602;13.434;2023-11-19T01:46:09;100803.94;;;2.66;100.00
80509;BME280;69838;52.602;13.434;2023-11-19T01:46:54;100795.97;;;2.65;100.00
80509;BME280;69838;52.602;13.434;2023-11-19T01:47:41;100796.81;;;2.67;100.00
80509;BME280;69838;52.602;13.434;2023-11-19T01:48:26;100787.09;;;2.66;100.00
80509;BME280;69838;52.602;13.434;2023-11-19T01:49:14;100794.16;;;2.67;100.00
80509;BME280;69838;52.602;13.434;2023-11-19T01:50:03;100790.59;;;2.68;100.00
80509;BME280;69838;52.602;13.434;2023-11-19T01:50:51;100778.16;;;2.67;100.00
80509;BME280;69838;52.602;13.434;2023-11-19T01:51:39;100772.81;;;2.67;100.00
80509;BME280;69838;52.602;13.434;2023-11-19T01:52:26;100771.91;;;2.70;100.00
80509;BME280;69838;52.602;13.434;2023-11-19T01:53:12;100768.31;;;2.72;100.00
80509;BME280;69838;52.602;13.434;2023-11-19T01:53:58;100769.13;;;2.77;100.00
80509;BME280;69838;52.602;13.434;2023-11-19T01:54:44;100762.00;;;2.78;100.00
80509;BME280;69838;52.602;13.434;2023-11-19T01:55:30;100763.75;;;2.80;100.00
80509;BME280;69838;52.602;13.434;2023-11-19T01:56:15;100767.22;;;2.85;100.00
80509;BME280;69838;52.602;13.434;2023-11-19T01:57:02;100764.56;;;2.85;100.00
80509;BME280;69838;52.602;13.434;2023-11-19T01:57:49;100751.22;;;2.85;100.00
80509;BME280;69838;52.602;13.434;2023-11-19T01:58:35;100756.50;;;2.87;100.00
80509;BME280;69838;52.602;13.434;2023-11-19T01:59:21;100742.31;;;2.86;100.00
80509;BME280;69838;52.602;13.434;2023-11-19T02:00:12;100738.75;;;2.88;100.00
80509;BME280;69838;52.602;13.434;2023-11-19T02:00:59;100748.47;;;2.89;100.00
80509;BME280;69838;52.602;13.434;2023-11-19T02:01:45;100745.81;;;2.89;100.00
80509;BME280;69838;52.602;13.434;2023-11-19T02:02:30;100734.28;;;2.88;100.00
80509;BME280;69838;52.602;13.434;2023-11-19T02:03:16;100744.06;;;2.88;100.00
80509;BME280;69838;52.602;13.434;2023-11-19T02:04:04;100749.38;;;2.89;100.00
80509;BME280;69838;52.602;13.434;2023-11-19T02:04:50;100742.22;;;2.93;100.00
80509;BME280;69838;52.602;13.434;2023-11-19T02:05:38;100737.75;;;2.93;100.00
80509;BME280;69838;52.602;13.434;2023-11-19T02:06:25;100740.41;;;2.95;100.00
80509;BME280;69838;52.602;13.434;2023-11-19T02:07:12;100735.06;;;2.95;100.00
80509;BME280;69838;52.602;13.434;2023-11-19T02:07:59;100735.09;;;2.92;100.00
80509;BME280;69838;52.602;13.434;2023-11-19T02:08:45;100727.09;;;2.92;100.00
80509;BME280;69838;52.602;13.434;2023-11-19T02:09:30;100721.75;;;2.93;100.00
80509;BME280;69838;52.602;13.434;2023-11-19T02:10:16;100712.00;;;2.91;100.00
80509;BME280;69838;52.602;13.434;2023-11-19T02:11:05;100708.44;;;2.92;100.00
80509;BME280;69838;52.602;13.434;2023-11-19T02:11:52;100705.72;;;2.95;100.00
80509;BME280;69838;52.602;13.434;2023-11-19T02:12:40;100700.41;;;2.95;100.00
80509;BME280;69838;52.602;13.434;2023-11-19T02:13:28;100698.59;;;2.95;100.00
80509;BME280;69838;52.602;13.434;2023-11-19T02:14:13;100695.97;;;2.94;100.00
80509;BME280;69838;52.602;13.434;2023-11-19T02:15:00;100685.28;;;2.94;100.00
80509;BME280;69838;52.602;13.434;2023-11-19T02:15:45;100674.66;;;2.91;100.00
80509;BME280;69838;52.602;13.434;2023-11-19T02:16:30;100665.81;;;2.89;100.00
80509;BME280;69838;52.602;13.434;2023-11-19T02:17:26;100664.09;;;2.88;100.00
80509;BME280;69838;52.602;13.434;2023-11-19T02:18:17;100671.16;;;2.89;100.00
80509;BME280;69838;52.602;13.434;2023-11-19T02:19:03;100656.13;;;2.84;100.00
80509;BME280;69838;52.602;13.434;2023-11-19T02:19:51;100655.22;;;2.85;100.00
80509;BME280;69838;52.602;13.434;2023-11-19T02:20:36;100661.47;;;2.83;100.00
80509;BME280;69838;52.602;13.434;2023-11-19T02:21:22;100672.16;;;2.83;100.00
80509;BME280;69838;52.602;13.434;2023-11-19T02:22:08;100673.94;;;2.84;100.00
80509;BME280;69838;52.602;13.434;2023-11-19T02:22:55;100679.19;;;2.87;100.00
80509;BME280;69838;52.602;13.434;2023-11-19T02:23:40;100664.97;;;2.86;100.00
80509;BME280;69838;52.602;13.434;2023-11-19T02:24:29;100664.00;;;2.91;100.00
80509;BME280;69838;52.602;13.434;2023-11-19T02:25:20;100667.59;;;2.90;100.00
80509;BME280;69838;52.602;13.434;2023-11-19T02:26:10;100670.16;;;2.94;100.00
80509;BME280;69838;52.602;13.434;2023-11-19T02:27:02;100667.53;;;2.93;100.00
80509;BME280;69838;52.602;13.434;2023-11-19T02:27:53;100673.78;;;2.92;100.00
80509;BME280;69838;52.602;13.434;2023-11-19T02:28:41;100670.25;;;2.90;100.00
80509;BME280;69838;52.602;13.434;2023-11-19T02:29:28;100673.84;;;2.87;100.00
80509;BME280;69838;52.602;13.434;2023-11-19T02:30:13;100651.75;;;2.82;100.00
80509;BME280;69838;52.602;13.434;2023-11-19T02:30:59;100664.00;;;2.91;100.00
80509;BME280;69838;52.602;13.434;2023-11-19T02:31:45;100657.78;;;2.90;100.00
80509;BME280;69838;52.602;13.434;2023-11-19T02:32:32;100653.34;;;2.91;100.00
80509;BME280;69838;52.602;13.434;2023-11-19T02:33:17;100649.78;;;2.92;100.00
80509;BME280;69838;52.602;13.434;2023-11-19T02:34:03;100646.22;;;2.93;100.00
80509;BME280;69838;52.602;13.434;2023-11-19T02:34:49;100649.78;;;2.92;100.00
80509;BME280;69838;52.602;13.434;2023-11-19T02:35:34;100642.66;;;2.91;100.00
80509;BME280;69838;52.602;13.434;2023-11-19T02:36:20;100641.78;;;2.90;100.00
80509;BME280;69838;52.602;13.434;2023-11-19T02:37:06;100638.25;;;2.91;100.00
80509;BME280;69838;52.602;13.434;2023-11-19T02:37:52;100640.00;;;2.91;100.00
80509;BME280;69838;52.602;13.434;2023-11-19T02:38:38;100625.81;;;2.90;100.00
80509;BME280;69838;52.602;13.434;2023-11-19T02:39:23;100623.06;;;2.95;100.00
80509;BME280;69838;52.602;13.434;2023-11-19T02:40:09;100616.78;;;2.96;100.00
80509;BME280;69838;52.602;13.434;2023-11-19T02:40:56;100628.38;;;2.95;100.00
80509;BME280;69838;52.602;13.434;2023-11-19T02:41:41;100622.97;;;2.98;100.00
80509;BME280;69838;52.602;13.434;2023-11-19T02:42:27;100621.22;;;2.98;100.00
80509;BME280;69838;52.602;13.434;2023-11-19T02:43:14;100607.88;;;2.98;100.00
80509;BME280;69838;52.602;13.434;2023-11-19T02:44:00;100599.91;;;2.97;100.00
80509;BME280;69838;52.602;13.434;2023-11-19T02:44:46;100614.97;;;2.98;100.00
80509;BME280;69838;52.602;13.434;2023-11-19T02:45:33;100610.44;;;3.03;100.00
80509;BME280;69838;52.602;13.434;2023-11-19T02:46:19;100608.69;;;3.02;100.00
80509;BME280;69838;52.602;13.434;2023-11-19T02:47:05;100608.69;;;3.02;100.00
80509;BME280;69838;52.602;13.434;2023-11-19T02:47:53;100610.53;;;3.00;100.00
80509;BME280;69838;52.602;13.434;2023-11-19T02:48:39;100604.28;;;2.99;100.00
80509;BME280;69838;52.602;13.434;2023-11-19T02:49:27;100606.06;;;3.00;100.00
80509;BME280;69838;52.602;13.434;2023-11-19T02:50:12;100589.19;;;3.00;100.00
80509;BME280;69838;52.602;13.434;2023-11-19T02:50:59;100590.97;;;2.98;100.00
80509;BME280;69838;52.602;13.434;2023-11-19T02:51:46;100587.47;;;2.96;100.00
80509;BME280;69838;52.602;13.434;2023-11-19T02:52:31;100587.41;;;2.99;100.00
80509;BME280;69838;52.602;13.434;2023-11-19T02:53:22;100588.28;;;2.99;100.00
80509;BME280;69838;52.602;13.434;2023-11-19T02:54:09;100589.19;;;3.00;100.00
80509;BME280;69838;52.602;13.434;2023-11-19T02:54:55;100601.53;;;3.04;100.00
80509;BME280;69838;52.602;13.434;2023-11-19T02:55:40;100597.09;;;3.03;100.00
80509;BME280;69838;52.602;13.434;2023-11-19T02:56:33;100592.59;;;3.05;100.00
80509;BME280;69838;52.602;13.434;2023-11-19T02:57:22;100590.81;;;3.07;100.00
80509;BME280;69838;52.602;13.434;2023-11-19T02:58:07;100582.84;;;3.05;100.00
80509;BME280;69838;52.602;13.434;2023-11-19T02:59:06;100579.28;;;3.05;100.00
80509;BME280;69838;52.602;13.434;2023-11-19T03:00:00;100578.38;;;3.06;100.00
80509;BME280;69838;52.602;13.434;2023-11-19T03:00:46;100576.59;;;3.05;100.00
80509;BME280;69838;52.602;13.434;2023-11-19T03:01:37;100577.53;;;3.04;100.00
80509;BME280;69838;52.602;13.434;2023-11-19T03:02:22;100569.53;;;3.04;100.00
80509;BME280;69838;52.602;13.434;2023-11-19T03:03:09;100570.41;;;3.04;100.00
80509;BME280;69838;52.602;13.434;2023-11-19T03:04:05;100560.66;;;3.03;100.00
80509;BME280;69838;52.602;13.434;2023-11-19T03:04:50;100552.56;;;3.06;100.00
80509;BME280;69838;52.602;13.434;2023-11-19T03:05:36;100560.56;;;3.08;100.00
80509;BME280;69838;52.602;13.434;2023-11-19T03:06:22;100556.09;;;3.09;100.00
80509;BME280;69838;52.602;13.434;2023-11-19T03:07:07;100548.97;;;3.09;100.00
80509;BME280;69838;52.602;13.434;2023-11-19T03:07:53;100552.50;;;3.11;100.00
80509;BME280;69838;52.602;13.434;2023-11-19T03:08:39;100552.50;;;3.11;100.00
80509;BME280;69838;52.602;13.434;2023-11-19T03:09:24;100555.13;;;3.13;100.00
80509;BME280;69838;52.602;13.434;2023-11-19T03:10:10;100554.22;;;3.12;100.00
80509;BME280;69838;52.602;13.434;2023-11-19T03:10:58;100556.91;;;3.12;100.00
80509;BME280;69838;52.602;13.434;2023-11-19T03:11:44;100564.00;;;3.13;100.00
80509;BME280;69838;52.602;13.434;2023-11-19T03:12:29;100560.44;;;3.14;100.00
80509;BME280;69838;52.602;13.434;2023-11-19T03:13:15;100558.66;;;3.13;100.00
80509;BME280;69838;52.602;13.434;2023-11-19T03:14:02;100564.88;;;3.14;100.00
80509;BME280;69838;52.602;13.434;2023-11-19T03:14:49;100570.25;;;3.12;100.00
80509;BME280;69838;52.602;13.434;2023-11-19T03:15:36;100562.22;;;3.12;100.00
80509;BME280;69838;52.602;13.434;2023-11-19T03:16:21;100564.91;;;3.12;100.00
80509;BME280;69838;52.602;13.434;2023-11-19T03:17:06;100568.50;;;3.11;100.00
80509;BME280;69838;52.602;13.434;2023-11-19T03:17:54;100569.28;;;3.16;100.00
80509;BME280;69838;52.602;13.434;2023-11-19T03:18:40;100574.63;;;3.16;100.00
80509;BME280;69838;52.602;13.434;2023-11-19T03:19:25;100571.03;;;3.17;100.00
80509;BME280;69838;52.602;13.434;2023-11-19T03:20:12;100570.16;;;3.17;100.00
80509;BME280;69838;52.602;13.434;2023-11-19T03:21:02;100578.19;;;3.15;100.00
80509;BME280;69838;52.602;13.434;2023-11-19T03:21:48;100554.13;;;3.18;100.00
80509;BME280;69838;52.602;13.434;2023-11-19T03:22:34;100561.19;;;3.19;100.00
80509;BME280;69838;52.602;13.434;2023-11-19T03:23:19;100562.06;;;3.21;100.00
80509;BME280;69838;52.602;13.434;2023-11-19T03:24:05;100554.97;;;3.20;100.00
80509;BME280;69838;52.602;13.434;2023-11-19T03:24:53;100558.59;;;3.18;100.00
80509;BME280;69838;52.602;13.434;2023-11-19T03:25:38;100559.41;;;3.21;100.00
80509;BME280;69838;52.602;13.434;2023-11-19T03:26:24;100556.63;;;3.26;100.00
80509;BME280;69838;52.602;13.434;2023-11-19T03:27:10;100559.31;;;3.24;100.00
80509;BME280;69838;52.602;13.434;2023-11-19T03:27:56;100560.28;;;3.22;100.00
80509;BME280;69838;52.602;13.434;2023-11-19T03:28:42;100569.09;;;3.25;100.00
80509;BME280;69838;52.602;13.434;2023-11-19T03:29:28;100561.88;;;3.31;100.00
80509;BME280;69838;52.602;13.434;2023-11-19T03:30:15;100551.19;;;3.31;100.00
80509;BME280;69838;52.602;13.434;2023-11-19T03:31:04;100546.78;;;3.28;100.00
80509;BME280;69838;52.602;13.434;2023-11-19T03:31:53;100550.38;;;3.27;100.00
80509;BME280;69838;52.602;13.434;2023-11-19T03:32:38;100553.91;;;3.28;100.00
80509;BME280;69838;52.602;13.434;2023-11-19T03:33:24;100538.81;;;3.27;100.00
80509;BME280;69838;52.602;13.434;2023-11-19T03:34:11;100540.63;;;3.24;100.00
80509;BME280;69838;52.602;13.434;2023-11-19T03:34:56;100527.22;;;3.29;100.00
80509;BME280;69838;52.602;13.434;2023-11-19T03:35:41;100530.78;;;3.28;100.00
80509;BME280;69838;52.602;13.434;2023-11-19T03:36:31;100523.69;;;3.27;100.00
80509;BME280;69838;52.602;13.434;2023-11-19T03:37:17;100521.91;;;3.28;100.00
80509;BME280;69838;52.602;13.434;2023-11-19T03:38:03;100513.13;;;3.22;100.00
80509;BME280;69838;52.602;13.434;2023-11-19T03:38:49;100514.97;;;3.19;100.00
80509;BME280;69838;52.602;13.434;2023-11-19T03:39:34;100514.09;;;3.18;100.00
80509;BME280;69838;52.602;13.434;2023-11-19T03:40:20;100509.69;;;3.16;100.00
80509;BME280;69838;52.602;13.434;2023-11-19T03:41:10;100505.31;;;3.13;100.00
80509;BME280;69838;52.602;13.434;2023-11-19T03:41:55;100492.03;;;3.10;100.00
80509;BME280;69838;52.602;13.434;2023-11-19T03:42:41;100499.16;;;3.11;100.00
80509;BME280;69838;52.602;13.434;2023-11-19T03:43:27;100495.66;;;3.08;100.00
80509;BME280;69838;52.602;13.434;2023-11-19T03:44:12;100508.16;;;3.05;100.00
80509;BME280;69838;52.602;13.434;2023-11-19T03:44:58;100500.19;;;3.04;100.00
80509;BME280;69838;52.602;13.434;2023-11-19T03:45:46;100497.50;;;3.05;100.00
80509;BME280;69838;52.602;13.434;2023-11-19T03:46:31;100507.34;;;3.02;100.00
80509;BME280;69838;52.602;13.434;2023-11-19T03:47:16;100502.06;;;2.99;100.00
80509;BME280;69838;52.602;13.434;2023-11-19T03:48:03;100494.16;;;2.94;100.00
80509;BME280;69838;52.602;13.434;2023-11-19T03:48:49;100485.47;;;2.86;100.00
80509;BME280;69838;52.602;13.434;2023-11-19T03:49:35;100488.00;;;2.91;100.00
80509;BME280;69838;52.602;13.434;2023-11-19T03:50:21;100486.28;;;2.90;100.00
80509;BME280;69838;52.602;13.434;2023-11-19T03:51:06;100486.28;;;2.90;100.00
80509;BME280;69838;52.602;13.434;2023-11-19T03:51:52;100472.00;;;2.91;100.00
80509;BME280;69838;52.602;13.434;2023-11-19T03:52:38;100487.19;;;2.87;100.00
80509;BME280;69838;52.602;13.434;2023-11-19T03:53:23;100482.75;;;2.88;100.00
80509;BME280;69838;52.602;13.434;2023-11-19T03:54:09;100472.16;;;2.84;100.00
80509;BME280;69838;52.602;13.434;2023-11-19T03:54:56;100467.69;;;2.85;100.00
80509;BME280;69838;52.602;13.434;2023-11-19T03:55:42;100453.63;;;2.78;100.00
80509;BME280;69838;52.602;13.434;2023-11-19T03:56:28;100473.97;;;2.82;100.00
80509;BME280;69838;52.602;13.434;2023-11-19T03:57:14;100458.88;;;2.81;100.00
80509;BME280;69838;52.602;13.434;2023-11-19T03:58:00;100466.03;;;2.79;100.00
80509;BME280;69838;52.602;13.434;2023-11-19T03:58:47;100453.63;;;2.78;100.00
80509;BME280;69838;52.602;13.434;2023-11-19T03:59:32;100445.63;;;2.78;100.00
80509;BME280;69838;52.602;13.434;2023-11-19T04:00:18;100441.19;;;2.77;100.00